Time;durP1;ratioP1;P1;durP2;ratioP2;P2;SDS_P1;SDS_P2;PMS_P1;PMS_P2;Temp;Humidity;BMP_temperature;BMP_pressure;BME280_temperature;BME280_humidity;BME280_pressure;Samples;Min_cycle;Max_cycle;Signal;HPM_P1;HPM_P2
2023/04/23 00:00:19;;;;;;;3.10;2.97;;;;;;;7.24;100.00;62744.94;5015226;28;20254;-78
2023/04/23 00:02:48;;;;;;;3.70;3.42;;;;;;;7.33;100.00;62752.22;5026781;28;20222;-77
2023/04/23 00:05:16;;;;;;;3.47;3.22;;;;;;;7.33;100.00;62754.75;5026954;28;20218;-78
2023/04/23 00:07:43;;;;;;;6.18;4.13;;;;;;;7.34;100.00;62758.31;5027274;28;20219;-79
2023/04/23 00:10:11;;;;;;;3.30;3.00;;;;;;;7.31;100.00;62750.16;5025230;28;20222;-77
2023/04/23 00:12:40;;;;;;;3.15;2.90;;;;;;;7.23;100.00;62741.88;5025762;28;20485;-77
2023/04/23 00:15:08;;;;;;;3.63;3.33;;;;;;;7.23;100.00;62743.91;5025430;28;20198;-78
2023/04/23 00:17:35;;;;;;;4.38;3.38;;;;;;;7.33;100.00;62756.75;5025370;28;20242;-77
2023/04/23 00:20:02;;;;;;;4.05;3.75;;;;;;;7.33;100.00;62754.75;5025362;28;20207;-78
2023/04/23 00:22:29;;;;;;;4.10;3.53;;;;;;;7.31;100.00;62747.63;5026295;28;20591;-78
2023/04/23 00:24:56;;;;;;;4.13;3.67;;;;;;;7.33;100.00;62751.69;5026936;28;20576;-77
2023/04/23 00:27:23;;;;;;;3.97;3.67;;;;;;;7.32;100.00;62748.66;5025335;28;20228;-77
2023/04/23 00:29:52;;;;;;;4.32;3.25;;;;;;;7.28;100.00;62747.06;5025569;28;20209;-79
2023/04/23 00:32:19;;;;;;;3.55;3.22;;;;;;;7.19;100.00;62742.84;5026321;28;20222;-78
2023/04/23 00:34:47;;;;;;;4.13;3.25;;;;;;;7.17;100.00;62737.72;5025431;28;20199;-78
2023/04/23 00:37:15;;;;;;;4.72;3.50;;;;;;;7.22;100.00;62743.41;5024368;28;20249;-78
2023/04/23 00:39:42;;;;;;;4.10;3.80;;;;;;;7.24;100.00;62745.47;5026250;28;20229;-78
2023/04/23 00:42:11;;;;;;;3.60;3.40;;;;;;;7.19;100.00;62740.31;5026398;28;20443;-78
2023/04/23 00:44:38;;;;;;;3.97;3.53;;;;;;;7.16;100.00;62737.22;5025329;28;20198;-78
2023/04/23 00:47:07;;;;;;;4.38;4.07;;;;;;;7.19;100.00;62745.38;5026105;28;20230;-77
2023/04/23 00:49:35;;;;;;;3.58;3.38;;;;;;;7.07;100.00;62725.38;5024236;28;20203;-76
2023/04/23 00:52:02;;;;;;;4.85;3.70;;;;;;;7.06;100.00;62726.38;5024123;28;20231;-78
2023/04/23 00:54:30;;;;;;;7.90;4.28;;;;;;;6.99;100.00;62720.19;5021017;28;20392;-78
2023/04/23 00:56:58;;;;;;;4.75;4.43;;;;;;;6.99;100.00;62719.66;5024993;28;20230;-79
2023/04/23 00:59:26;;;;;;;4.55;3.63;;;;;;;7.00;100.00;62723.75;5024578;28;20303;-79
2023/04/23 01:01:53;;;;;;;5.97;3.80;;;;;;;6.97;100.00;62715.06;5026458;28;20248;-77
2023/04/23 01:04:22;;;;;;;3.63;3.35;;;;;;;6.96;100.00;62719.09;5023632;28;20214;-78
2023/04/23 01:06:49;;;;;;;4.32;3.80;;;;;;;6.93;100.00;62706.41;5025362;28;20278;-77
2023/04/23 01:09:17;;;;;;;8.68;4.40;;;;;;;6.90;100.00;62710.38;5026587;28;20203;-79
2023/04/23 01:11:44;;;;;;;5.10;4.60;;;;;;;6.86;100.00;62704.25;5024425;28;20230;-78
2023/04/23 01:14:12;;;;;;;4.45;4.13;;;;;;;6.91;100.00;62711.94;5024313;28;20218;-79
2023/04/23 01:16:39;;;;;;;4.55;4.15;;;;;;;6.93;100.00;62714.00;5016600;28;20235;-76
2023/04/23 01:19:07;;;;;;;4.50;4.07;;;;;;;6.87;100.00;62702.75;5019274;28;20210;-77
2023/04/23 01:21:39;;;;;;;6.72;4.65;;;;;;;6.94;100.00;62714.50;5023638;28;20207;-79
2023/04/23 01:24:10;;;;;;;4.72;3.92;;;;;;;6.92;100.00;62710.44;5025547;28;20195;-79
2023/04/23 01:26:39;;;;;;;4.68;4.38;;;;;;;6.91;100.00;62711.41;5025059;28;20261;-77
2023/04/23 01:29:06;;;;;;;5.82;4.43;;;;;;;6.95;100.00;62715.53;5025821;28;20205;-78
2023/04/23 01:31:34;;;;;;;5.03;4.40;;;;;;;6.98;100.00;62718.63;5023311;28;20373;-77
2023/04/23 01:34:01;;;;;;;6.20;4.32;;;;;;;6.89;100.00;62707.34;5025869;28;20195;-78
2023/04/23 01:36:28;;;;;;;5.10;3.97;;;;;;;6.93;100.00;62711.47;5025480;28;20450;-77
2023/04/23 01:38:55;;;;;;;4.20;3.88;;;;;;;6.90;100.00;62713.41;5026719;28;20218;-77
2023/04/23 01:41:23;;;;;;;9.15;4.55;;;;;;;6.87;100.00;62707.28;5023579;28;20213;-77
2023/04/23 01:43:50;;;;;;;4.72;4.13;;;;;;;6.83;100.00;62703.16;5024755;28;20262;-77
2023/04/23 01:46:18;;;;;;;4.75;3.70;;;;;;;6.80;100.00;62697.53;5024014;28;20213;-78
2023/04/23 01:48:44;;;;;;;4.57;4.03;;;;;;;6.79;100.00;62699.03;5017262;28;20226;-77
2023/04/23 01:51:12;;;;;;;4.68;3.90;;;;;;;6.78;100.00;62695.47;5005135;28;20207;-78
2023/04/23 01:53:39;;;;;;;5.38;4.05;;;;;;;6.78;100.00;62698.00;5018234;28;20240;-78
2023/04/23 01:56:08;;;;;;;3.90;3.65;;;;;;;6.75;100.00;62694.91;5025046;28;20202;-78
2023/04/23 01:58:36;;;;;;;4.25;4.00;;;;;;;6.73;100.00;62687.78;5024062;28;20500;-76
2023/04/23 02:01:03;;;;;;;4.47;3.83;;;;;;;6.73;100.00;62690.81;5023679;28;20218;-78
2023/04/23 02:03:32;;;;;;;4.38;4.07;;;;;;;6.66;100.00;62688.66;5025210;28;20222;-78
2023/04/23 02:06:00;;;;;;;5.13;4.63;;;;;;;6.76;100.00;62699.00;5025758;28;20210;-78
2023/04/23 02:08:29;;;;;;;4.90;4.47;;;;;;;6.72;100.00;62699.94;5025566;28;20282;-78
2023/04/23 02:10:56;;;;;;;4.95;4.55;;;;;;;6.70;100.00;62687.22;5027760;28;20203;-78
2023/04/23 02:13:24;;;;;;;5.90;5.13;;;;;;;6.68;100.00;62685.66;5027173;28;20415;-77
2023/04/23 02:15:52;;;;;;;5.63;5.13;;;;;;;6.69;100.00;62686.19;5026944;28;20257;-77
2023/04/23 02:18:19;;;;;;;5.47;5.00;;;;;;;6.70;100.00;62692.78;5027331;28;20230;-78
2023/04/23 02:20:46;;;;;;;5.43;4.70;;;;;;;6.66;100.00;62688.66;5029372;28;20209;-78
2023/04/23 02:23:13;;;;;;;4.95;4.63;;;;;;;6.57;100.00;62676.34;5029298;28;20222;-78
2023/04/23 02:25:42;;;;;;;8.05;4.80;;;;;;;6.62;100.00;62684.03;5014737;28;20204;-78
2023/04/23 02:28:12;;;;;;;4.45;4.13;;;;;;;6.62;100.00;62679.50;5007668;28;20454;-79
2023/04/23 02:30:44;;;;;;;7.00;4.53;;;;;;;6.58;100.00;62679.91;5016774;28;20199;-77
2023/04/23 02:33:12;;;;;;;4.55;4.22;;;;;;;6.56;100.00;62678.34;5026582;28;20422;-79
2023/04/23 02:35:39;;;;;;;4.47;4.07;;;;;;;6.45;100.00;62661.44;5031861;28;20226;-78
2023/04/23 02:38:06;;;;;;;4.45;3.97;;;;;;;6.43;100.00;62666.97;5028239;28;20239;-77
2023/04/23 02:40:33;;;;;;;6.03;4.65;;;;;;;6.42;100.00;62663.91;5027374;28;20210;-78
2023/04/23 02:43:01;;;;;;;4.28;3.88;;;;;;;6.34;100.00;62650.63;5026133;28;20225;-78
2023/04/23 02:45:28;;;;;;;4.28;3.97;;;;;;;6.35;100.00;62656.19;5027931;28;20201;-78
2023/04/23 02:47:55;;;;;;;4.30;4.00;;;;;;;6.35;100.00;62653.66;5020417;28;20304;-78
2023/04/23 02:50:23;;;;;;;4.68;4.18;;;;;;;6.26;100.00;62641.84;5028997;28;20440;-79
2023/04/23 02:52:50;;;;;;;6.05;4.78;;;;;;;6.22;100.00;62637.72;5028567;28;20250;-78
2023/04/23 02:55:17;;;;;;;4.97;4.57;;;;;;;6.22;100.00;62638.25;5028022;28;20249;-80
2023/04/23 02:57:45;;;;;;;8.82;4.40;;;;;;;6.25;100.00;62645.88;5026678;28;20274;-78
2023/04/23 03:00:14;;;;;;;5.18;4.78;;;;;;;6.30;100.00;62651.03;5027839;28;20218;-78
2023/04/23 03:02:41;;;;;;;4.90;4.50;;;;;;;6.27;100.00;62643.41;5026453;28;20257;-79
2023/04/23 03:05:09;;;;;;;5.05;4.57;;;;;;;6.25;100.00;62645.88;5028040;28;20191;-79
2023/04/23 03:07:37;;;;;;;6.95;4.70;;;;;;;6.24;100.00;62637.78;5028255;28;20229;-77
2023/04/23 03:10:05;;;;;;;4.95;4.45;;;;;;;6.18;100.00;62639.16;5026655;28;20500;-78
2023/04/23 03:12:32;;;;;;;5.20;4.80;;;;;;;6.23;100.00;62641.28;5027584;28;20223;-79
2023/04/23 03:14:59;;;;;;;6.40;5.82;;;;;;;6.24;100.00;62642.31;5026641;28;20199;-78
2023/04/23 03:17:26;;;;;;;5.13;4.75;;;;;;;6.23;100.00;62644.31;5026807;28;20273;-78
2023/04/23 03:19:53;;;;;;;5.20;4.82;;;;;;;6.27;100.00;62645.94;5025934;28;20421;-77
2023/04/23 03:22:20;;;;;;;8.07;6.28;;;;;;;6.28;100.00;62646.94;5028151;28;20286;-79
2023/04/23 03:24:49;;;;;;;6.60;5.95;;;;;;;6.30;100.00;62649.00;5026991;28;20262;-78
2023/04/23 03:27:16;;;;;;;7.45;6.57;;;;;;;6.33;100.00;62649.06;5029192;28;20273;-78
2023/04/23 03:29:43;;;;;;;7.00;6.35;;;;;;;6.30;100.00;62649.00;5026973;28;20245;-79
2023/04/23 03:32:10;;;;;;;8.07;6.30;;;;;;;6.31;100.00;62649.53;5026797;28;20249;-78
2023/04/23 03:34:37;;;;;;;6.95;6.18;;;;;;;6.33;100.00;62654.13;5026331;28;20272;-77
2023/04/23 03:37:04;;;;;;;9.52;5.95;;;;;;;6.27;100.00;62645.41;5023403;28;20415;-78
2023/04/23 03:39:31;;;;;;;8.70;6.15;;;;;;;6.33;100.00;62651.59;5007029;28;20203;-78
2023/04/23 03:42:00;;;;;;;6.13;5.63;;;;;;;6.31;100.00;62647.00;5027151;28;20467;-77
2023/04/23 03:44:27;;;;;;;6.38;5.78;;;;;;;6.29;100.00;62645.47;5027914;28;20194;-78
2023/04/23 03:46:54;;;;;;;5.60;5.07;;;;;;;6.29;100.00;62653.03;5025524;28;20394;-78
2023/04/23 03:49:21;;;;;;;6.38;5.60;;;;;;;6.34;100.00;62655.66;5026462;28;20222;-78
2023/04/23 03:51:48;;;;;;;8.40;5.70;;;;;;;6.40;100.00;62656.28;5027487;28;20242;-79
2023/04/23 03:54:15;;;;;;;6.78;5.03;;;;;;;6.35;100.00;62651.13;5026038;28;20519;-79
2023/04/23 03:56:43;;;;;;;8.48;6.10;;;;;;;6.41;100.00;62662.38;5025157;28;20286;-77
2023/04/23 03:59:11;;;;;;;6.20;5.70;;;;;;;6.49;100.00;62668.09;5026587;28;20226;-78
2023/04/23 04:01:37;;;;;;;6.32;5.55;;;;;;;6.49;100.00;62671.13;5026114;28;20459;-78
2023/04/23 04:04:04;;;;;;;5.90;5.30;;;;;;;6.58;100.00;62679.91;5022767;28;20204;-78
2023/04/23 04:06:31;;;;;;;11.50;5.95;;;;;;;6.53;100.00;62674.75;5008412;28;20203;-78
2023/04/23 04:08:58;;;;;;;5.43;4.85;;;;;;;6.65;100.00;62685.13;5023912;28;20265;-79
2023/04/23 04:11:25;;;;;;;7.57;5.53;;;;;;;6.73;100.00;62693.34;5026563;28;20194;-77
2023/04/23 04:13:52;;;;;;;8.98;5.78;;;;;;;6.78;100.00;62700.53;5025232;28;20519;-78
2023/04/23 04:16:20;;;;;;;6.97;6.28;;;;;;;6.79;100.00;62699.56;5026644;28;20213;-78
2023/04/23 04:18:47;;;;;;;8.32;6.68;;;;;;;6.93;100.00;62710.94;5026709;28;20405;-77
2023/04/23 04:21:16;;;;;;;9.13;7.40;;;;;;;6.98;100.00;62721.16;5026364;28;20206;-79
2023/04/23 04:23:43;;;;;;;8.05;7.32;;;;;;;7.03;100.00;62721.78;5025142;28;20226;-79
2023/04/23 04:26:10;;;;;;;8.05;6.80;;;;;;;7.15;100.00;62736.16;5025393;28;20206;-77
2023/04/23 04:28:38;;;;;;;9.10;7.28;;;;;;;7.18;100.00;62746.34;5025181;28;20222;-78
2023/04/23 04:31:07;;;;;;;9.55;7.20;;;;;;;7.31;100.00;62752.16;5027526;28;20206;-78
2023/04/23 04:33:38;;;;;;;8.18;7.35;;;;;;;7.41;100.00;62763.00;5025949;28;20226;-78
2023/04/23 04:36:07;;;;;;;13.00;8.63;;;;;;;7.52;100.00;62778.91;5026391;28;20494;-77
2023/04/23 04:38:36;;;;;;;10.85;8.77;;;;;;;7.65;100.00;62785.25;5026064;28;20238;-79
2023/04/23 04:41:04;;;;;;;14.27;8.43;;;;;;;7.83;100.00;62803.31;5024774;28;20265;-78
2023/04/23 04:43:31;;;;;;;11.90;8.35;;;;;;;7.78;100.00;62798.16;5025234;28;20245;-78
2023/04/23 04:45:59;;;;;;;11.15;8.90;;;;;;;7.58;100.00;62777.50;5026130;28;20213;-76
2023/04/23 04:48:26;;;;;;;11.43;8.13;;;;;;;7.39;100.00;62760.41;5014068;28;20219;-77
2023/04/23 04:50:54;;;;;;;10.40;7.82;;;;;;;7.07;100.00;62727.41;5014201;28;20214;-76
2023/04/23 04:53:21;;;;;;;8.68;7.88;;;;;;;7.14;100.00;62740.22;5025369;28;20218;-77
2023/04/23 04:55:48;;;;;;;9.98;7.65;;;;;;;7.17;100.00;62733.19;5025160;28;20199;-80
2023/04/23 04:58:15;;;;;;;8.35;7.45;;;;;;;7.36;100.00;62752.25;5024779;28;20244;-76
2023/04/23 05:00:43;;;;;;;13.88;7.85;;;;;;;7.60;100.00;62782.63;5017519;28;20199;-77
2023/04/23 05:03:10;;;;;;;8.02;7.30;;;;;;;7.79;100.00;62797.16;5022844;28;20471;-79
2023/04/23 05:05:37;;;;;;;9.00;7.95;;;;;;;7.99;100.00;62822.88;5024967;28;20546;-78
2023/04/23 05:08:06;;;;;;;10.20;7.20;;;;;;;8.10;100.00;62836.78;5023368;28;20223;-79
2023/04/23 05:10:33;;;;;;;10.93;7.90;;;;;;;8.21;100.00;62845.59;5024913;28;20627;-77
2023/04/23 05:13:00;;;;;;;10.18;7.80;;;;;;;8.31;100.00;62854.91;5019162;28;20230;-77
2023/04/23 05:15:27;;;;;;;8.07;7.28;;;;;;;8.43;100.00;62867.31;5010988;28;20523;-79
2023/04/23 05:17:55;;;;;;;8.43;7.57;;;;;;;8.55;100.00;62874.63;5016393;28;20235;-78
2023/04/23 05:20:22;;;;;;;9.70;7.95;;;;;;;8.79;100.00;62899.41;5010076;28;20207;-78
2023/04/23 05:22:49;;;;;;;10.25;7.50;;;;;;;9.00;100.00;62929.28;5017417;28;20249;-77
2023/04/23 05:25:18;;;;;;;12.32;8.18;;;;;;;9.25;100.00;62947.47;5012087;28;20231;-78
2023/04/23 05:27:44;;;;;;;7.05;6.32;;;;;;;9.53;100.00;62983.53;5008075;28;20739;-77
2023/04/23 05:30:12;;;;;;;9.00;7.35;;;;;;;9.71;100.00;62994.00;5021877;28;20415;-77
2023/04/23 05:32:39;;;;;;;7.88;7.18;;;;;;;9.86;100.00;63009.53;5023262;28;20278;-80
2023/04/23 05:35:06;;;;;;;7.88;6.65;;;;;;;9.93;100.00;63024.38;5022221;28;20195;-78
2023/04/23 05:37:34;;;;;;;9.02;7.32;;;;;;;9.97;100.00;63026.00;5012680;28;20215;-78
2023/04/23 05:40:05;;;;;;;8.70;7.07;;;;;;;10.13;100.00;63037.47;5016512;28;20195;-78
2023/04/23 05:42:34;;;;;;;7.65;6.85;;;;;;;10.35;100.00;63065.84;5007121;28;20463;-77
2023/04/23 05:45:02;;;;;;;8.85;6.72;;;;;;;10.59;100.00;63089.66;5016987;28;20203;-77
2023/04/23 05:47:28;;;;;;;7.40;6.57;;;;;;;10.54;100.00;63087.53;5022745;28;20222;-78
2023/04/23 05:49:56;;;;;;;7.60;6.90;;;;;;;10.36;100.00;63069.44;5026085;28;20549;-79
2023/04/23 05:52:23;;;;;;;7.25;6.50;;;;;;;10.28;100.00;63061.16;5022650;28;20214;-77
2023/04/23 05:54:51;;;;;;;7.50;6.60;;;;;;;10.53;100.00;63083.94;5015479;28;20215;-78
2023/04/23 05:57:18;;;;;;;7.20;6.47;;;;;;;10.48;100.00;63076.75;5018467;28;20397;-78
2023/04/23 05:59:47;;;;;;;6.65;6.05;;;;;;;10.68;100.00;63098.97;5021899;28;20412;-79
2023/04/23 06:02:14;;;;;;;11.23;6.90;;;;;;;10.72;100.00;63103.09;5019039;28;20237;-78
2023/04/23 06:04:40;;;;;;;9.05;6.72;;;;;;;10.75;100.00;63103.66;5028142;28;20245;-77
2023/04/23 06:07:07;;;;;;;7.93;7.13;;;;;;;10.84;100.00;63116.03;5031174;28;20222;-78
2023/04/23 06:09:35;;;;;;;8.60;6.90;;;;;;;10.85;100.00;63121.66;5021457;28;20202;-80
2023/04/23 06:12:03;;;;;;;8.93;6.60;;;;;;;10.92;100.00;63128.91;5020798;28;20282;-78
2023/04/23 06:14:30;;;;;;;8.50;6.57;;;;;;;10.87;100.00;63116.09;5021288;28;20203;-78
2023/04/23 06:16:58;;;;;;;10.50;6.55;;;;;;;10.99;100.00;63131.06;5029760;28;20225;-79
2023/04/23 06:19:26;;;;;;;8.07;6.53;;;;;;;11.11;100.00;63140.94;5023023;28;20235;-79
2023/04/23 06:21:54;;;;;;;7.53;6.72;;;;;;;11.15;100.00;63142.50;5028714;28;20392;-81
2023/04/23 06:24:20;;;;;;;9.88;6.53;;;;;;;11.06;100.00;63138.81;5025473;28;20500;-79
2023/04/23 06:26:47;;;;;;;8.10;6.68;;;;;;;10.86;100.00;63120.66;5031439;28;20249;-78
2023/04/23 06:29:14;;;;;;;10.65;7.05;;;;;;;11.01;100.00;63135.69;5028409;28;20199;-78
2023/04/23 06:31:41;;;;;;;8.35;7.35;;;;;;;10.98;100.00;63132.56;5013401;28;20245;-79
2023/04/23 06:34:10;;;;;;;8.25;7.00;;;;;;;11.01;100.00;63133.13;5029265;28;20209;-77
2023/04/23 06:36:38;;;;;;;9.02;7.10;;;;;;;10.96;100.00;63125.91;5030634;28;20218;-79
2023/04/23 06:39:04;;;;;;;11.45;7.25;;;;;;;11.02;100.00;63132.13;5025416;28;20241;-77
2023/04/23 06:41:31;;;;;;;9.13;7.55;;;;;;;11.17;100.00;63145.13;5026472;28;20199;-77
2023/04/23 06:43:58;;;;;;;7.43;6.65;;;;;;;11.25;100.00;63157.97;5024777;28;20198;-77
2023/04/23 06:46:25;;;;;;;8.85;7.60;;;;;;;11.27;100.00;63160.03;5027484;28;20263;-78
2023/04/23 06:48:52;;;;;;;10.05;7.13;;;;;;;11.22;100.00;63149.75;5014555;28;20253;-76
2023/04/23 06:51:21;;;;;;;9.20;7.35;;;;;;;11.32;100.00;63162.69;5017660;28;20211;-78
2023/04/23 06:53:48;;;;;;;8.15;7.20;;;;;;;11.35;100.00;63166.31;5014653;28;20231;-76
2023/04/23 06:56:15;;;;;;;8.13;7.32;;;;;;;11.39;100.00;63169.91;5020533;28;20244;-77
2023/04/23 06:58:42;;;;;;;10.98;8.02;;;;;;;11.66;100.00;63199.94;5012719;28;20257;-77
2023/04/23 07:01:10;;;;;;;7.72;7.03;;;;;;;11.86;97.35;63221.19;5022306;28;20265;-79
2023/04/23 07:03:37;;;;;;;10.23;6.70;;;;;;;11.88;96.16;63223.25;5021736;28;20220;-79
2023/04/23 07:06:04;;;;;;;9.75;6.80;;;;;;;12.03;96.42;63238.28;5013565;28;20199;-77
2023/04/23 07:08:32;;;;;;;7.35;5.90;;;;;;;11.96;96.28;63229.00;5013064;28;20223;-80
2023/04/23 07:11:00;;;;;;;7.75;6.90;;;;;;;11.98;96.15;63233.63;5026941;28;20520;-76
2023/04/23 07:13:27;;;;;;;8.32;7.20;;;;;;;12.10;96.09;63246.06;5020408;28;20402;-80
2023/04/23 07:15:54;;;;;;;11.18;7.13;;;;;;;12.02;95.63;63239.78;5016687;28;20471;-79
2023/04/23 07:18:21;;;;;;;9.25;7.07;;;;;;;11.99;95.60;63234.66;5024271;28;20225;-76
2023/04/23 07:20:48;;;;;;;9.68;8.32;;;;;;;11.75;97.32;63214.91;5025773;28;20716;-79
2023/04/23 07:23:15;;;;;;;7.70;6.88;;;;;;;11.86;97.65;63220.66;5026979;28;20278;-80
2023/04/23 07:25:44;;;;;;;9.70;6.80;;;;;;;12.14;98.02;63250.22;5025578;28;20215;-79
2023/04/23 07:28:11;;;;;;;9.10;6.63;;;;;;;12.36;94.06;63275.03;5026190;28;20226;-80
2023/04/23 07:30:38;;;;;;;7.75;7.00;;;;;;;12.44;91.94;63281.28;5028998;28;20198;-77
2023/04/23 07:33:05;;;;;;;9.60;7.22;;;;;;;12.43;92.35;63280.25;5023031;28;20290;-78
2023/04/23 07:35:32;;;;;;;8.82;6.75;;;;;;;12.26;91.46;63262.13;5021762;28;20201;-77
2023/04/23 07:37:59;;;;;;;7.35;6.65;;;;;;;12.15;93.29;63248.69;5017194;28;20237;-76
2023/04/23 07:40:26;;;;;;;7.85;6.90;;;;;;;12.19;93.61;63254.88;5027037;28;20258;-78
2023/04/23 07:42:57;;;;;;;12.85;7.25;;;;;;;12.48;90.87;63279.81;5022552;28;20531;-78
2023/04/23 07:45:24;;;;;;;6.80;6.20;;;;;;;12.34;91.61;63265.81;5016328;28;20241;-77
2023/04/23 07:47:51;;;;;;;8.70;7.18;;;;;;;12.29;92.49;63265.75;5021647;28;20218;-78
2023/04/23 07:50:18;;;;;;;7.40;6.70;;;;;;;12.51;89.54;63288.06;5025499;28;20306;-77
2023/04/23 07:52:45;;;;;;;7.47;6.78;;;;;;;12.69;90.34;63306.69;5016192;28;20215;-76
2023/04/23 07:55:13;;;;;;;7.35;6.75;;;;;;;13.15;87.96;63351.88;5014279;28;20269;-79
2023/04/23 07:57:40;;;;;;;6.88;6.25;;;;;;;13.69;84.12;63413.03;5022905;28;20226;-78
2023/04/23 08:00:10;;;;;;;8.02;6.22;;;;;;;14.08;75.82;63450.41;5024490;28;20262;-80
2023/04/23 08:02:38;;;;;;;6.75;6.15;;;;;;;14.24;71.93;63463.94;5029805;28;20218;-82
2023/04/23 08:05:06;;;;;;;13.15;6.50;;;;;;;14.53;72.43;63496.66;5026172;28;20301;-77
2023/04/23 08:07:39;;;;;;;6.50;5.82;;;;;;;14.61;69.73;63502.94;5025963;28;20226;-79
2023/04/23 08:10:08;;;;;;;14.57;6.60;;;;;;;14.63;71.16;63512.69;5022771;28;20196;-78
2023/04/23 08:12:35;;;;;;;7.68;6.10;;;;;;;14.83;69.07;63530.38;5011387;28;20253;-79
2023/04/23 08:15:02;;;;;;;6.85;6.28;;;;;;;14.66;67.50;63510.69;5020946;28;20225;-76
2023/04/23 08:17:30;;;;;;;8.93;8.00;;;;;;;14.44;70.43;63487.31;5025962;28;20226;-78
2023/04/23 08:19:57;;;;;;;8.35;7.20;;;;;;;14.44;72.00;63487.31;5013218;28;20237;-78
2023/04/23 08:22:24;;;;;;;10.55;6.18;;;;;;;14.63;71.46;63507.03;5026637;28;20245;-76
2023/04/23 08:24:51;;;;;;;8.23;6.30;;;;;;;14.83;68.75;63530.38;5018148;28;20218;-78
2023/04/23 08:27:18;;;;;;;8.13;6.30;;;;;;;14.93;69.13;63538.19;5013909;28;20231;-75
2023/04/23 08:29:45;;;;;;;7.47;6.70;;;;;;;14.96;69.39;63536.72;5019282;28;20277;-80
2023/04/23 08:32:15;;;;;;;7.25;6.65;;;;;;;15.08;68.23;63551.22;5018925;28;20264;-82
2023/04/23 08:34:44;;;;;;;9.00;6.68;;;;;;;15.05;64.54;63548.63;5016376;28;20292;-76
2023/04/23 08:37:12;;;;;;;8.07;6.63;;;;;;;14.71;66.41;63518.44;5013634;28;20496;-75
2023/04/23 08:39:38;;;;;;;7.32;6.63;;;;;;;14.69;65.23;63511.22;5010191;28;20243;-76
2023/04/23 08:42:11;;;;;;;7.50;6.32;;;;;;;14.37;67.34;63480.03;5009143;28;20470;-77
2023/04/23 08:44:41;;;;;;;8.00;6.55;;;;;;;14.56;72.11;63502.34;5022913;28;20209;-76
2023/04/23 08:47:12;;;;;;;11.73;6.85;;;;;;;14.75;68.70;63522.59;5024145;28;20231;-79
2023/04/23 08:49:45;;;;;;;7.72;6.18;;;;;;;15.21;65.77;63559.06;5015953;28;20214;-78
2023/04/23 08:52:17;;;;;;;6.43;5.82;;;;;;;15.35;62.53;63583.88;5011821;28;20226;-75
2023/04/23 08:54:49;;;;;;;7.25;5.45;;;;;;;15.42;62.59;63589.16;5010452;28;20423;-78
2023/04/23 08:57:17;;;;;;;7.30;6.32;;;;;;;15.65;63.46;63609.97;5011152;28;20315;-77
2023/04/23 08:59:46;;;;;;;7.10;6.53;;;;;;;15.65;61.68;63609.97;5019131;28;20268;-76
2023/04/23 09:02:14;;;;;;;7.60;6.30;;;;;;;15.69;60.62;63614.13;5025910;28;20229;-75
2023/04/23 09:04:44;;;;;;;7.85;6.20;;;;;;;15.78;60.74;63628.63;5015523;28;20202;-76
2023/04/23 09:07:14;;;;;;;7.18;6.47;;;;;;;15.69;60.65;63614.63;5012988;28;20225;-78
2023/04/23 09:09:41;;;;;;;8.25;7.10;;;;;;;15.57;60.09;63606.78;5017446;28;20206;-79
2023/04/23 09:12:09;;;;;;;7.43;6.57;;;;;;;15.59;59.33;63604.25;5013371;28;20229;-77
2023/04/23 09:14:36;;;;;;;7.20;6.57;;;;;;;15.08;62.50;63554.31;5011569;28;20202;-76
2023/04/23 09:17:04;;;;;;;9.57;6.97;;;;;;;15.17;61.75;63565.19;5012716;28;20439;-78
2023/04/23 09:19:31;;;;;;;8.85;7.07;;;;;;;15.18;62.21;63559.06;5016105;28;20230;-78
2023/04/23 09:22:00;;;;;;;7.07;6.47;;;;;;;15.34;63.02;63577.72;5028281;28;20285;-77
2023/04/23 09:24:28;;;;;;;6.95;6.25;;;;;;;15.39;60.36;63588.06;5025063;28;20385;-76
2023/04/23 09:26:58;;;;;;;6.47;5.88;;;;;;;15.68;60.51;63613.59;5026580;28;20225;-79
2023/04/23 09:29:26;;;;;;;7.72;6.90;;;;;;;15.96;58.92;63647.34;5020168;28;20206;-79
2023/04/23 09:31:54;;;;;;;6.85;6.35;;;;;;;15.75;60.31;63622.94;5015417;28;20276;-78
2023/04/23 09:34:23;;;;;;;7.22;6.38;;;;;;;15.82;59.93;63630.22;5016077;28;20471;-78
2023/04/23 09:36:52;;;;;;;8.15;6.88;;;;;;;15.98;56.43;63649.94;5016157;28;20424;-76
2023/04/23 09:39:23;;;;;;;6.72;5.97;;;;;;;15.93;57.46;63642.16;5018831;28;20264;-79
2023/04/23 09:41:52;;;;;;;6.68;6.07;;;;;;;15.49;57.84;63595.91;5013533;28;20233;-80
2023/04/23 09:44:21;;;;;;;6.57;5.93;;;;;;;15.87;56.54;63637.97;5025607;28;20399;-76
2023/04/23 09:46:48;;;;;;;6.22;5.63;;;;;;;16.00;55.44;63649.44;5024964;28;20217;-79
2023/04/23 09:49:15;;;;;;;7.43;5.70;;;;;;;16.36;53.81;63686.34;5016956;28;20278;-80
2023/04/23 09:51:45;;;;;;;9.05;5.65;;;;;;;16.30;54.76;63677.03;5023617;28;20204;-79
2023/04/23 09:54:13;;;;;;;7.15;6.28;;;;;;;16.28;54.29;63678.03;5022026;28;20214;-77
2023/04/23 09:56:43;;;;;;;8.52;6.60;;;;;;;16.24;55.47;63673.88;5021978;28;20209;-79
2023/04/23 09:59:24;;;;;;;6.53;5.47;;;;;;;16.18;54.28;63665.59;5009299;28;20199;-78
2023/04/23 10:01:51;;;;;;;6.80;6.13;;;;;;;16.25;54.23;63674.41;5017083;28;20225;-77
2023/04/23 10:04:21;;;;;;;7.00;6.22;;;;;;;15.96;56.17;63647.34;5018847;28;20218;-79
2023/04/23 10:06:49;;;;;;;6.70;6.18;;;;;;;16.01;55.51;63655.59;5017263;28;20241;-80
2023/04/23 10:09:16;;;;;;;6.43;5.85;;;;;;;16.41;53.50;63694.13;5022697;28;20198;-79
2023/04/23 10:11:45;;;;;;;6.40;5.30;;;;;;;16.79;53.62;63730.59;5019467;28;20261;-81
2023/04/23 10:14:13;;;;;;;6.35;5.75;;;;;;;17.04;50.04;63759.72;5022717;28;20197;-79
2023/04/23 10:16:40;;;;;;;6.47;5.40;;;;;;;17.27;49.13;63781.06;5020284;28;20206;-78
2023/04/23 10:19:12;;;;;;;8.55;5.68;;;;;;;17.10;48.54;63765.94;5017149;28;20270;-79
2023/04/23 10:21:41;;;;;;;7.15;5.68;;;;;;;16.85;49.17;63742.50;5016260;28;20216;-79
2023/04/23 10:24:10;;;;;;;5.57;5.00;;;;;;;16.63;49.08;63716.53;5010144;28;20203;-76
2023/04/23 10:26:42;;;;;;;6.38;5.88;;;;;;;16.27;49.18;63676.47;5023163;28;20225;-81
2023/04/23 10:29:15;;;;;;;7.57;5.72;;;;;;;16.53;49.77;63706.13;5010826;28;20206;-79
2023/04/23 10:31:43;;;;;;;6.07;5.47;;;;;;;16.58;48.87;63711.31;5018271;28;20209;-79
2023/04/23 10:34:10;;;;;;;6.32;5.68;;;;;;;16.56;48.83;63712.34;5029573;28;20225;-78
2023/04/23 10:36:40;;;;;;;5.95;5.38;;;;;;;16.75;48.14;63724.41;5029881;28;20198;-79
2023/04/23 10:39:09;;;;;;;6.35;5.78;;;;;;;16.74;47.61;63727.97;5027804;28;20221;-77
2023/04/23 10:41:38;;;;;;;5.88;5.13;;;;;;;16.74;47.51;63725.91;5028208;28;20217;-79
2023/04/23 10:44:06;;;;;;;7.28;5.30;;;;;;;17.12;48.73;63768.03;5024466;28;20195;-78
2023/04/23 10:46:35;;;;;;;6.10;5.50;;;;;;;17.48;49.90;63801.91;5011727;28;20207;-79
2023/04/23 10:49:07;;;;;;;6.30;5.80;;;;;;;17.65;46.89;63814.47;5024804;28;20224;-76
2023/04/23 10:51:35;;;;;;;5.93;5.35;;;;;;;17.66;47.23;63820.66;5018522;28;20206;-78
2023/04/23 10:54:04;;;;;;;5.53;4.93;;;;;;;17.57;45.03;63813.88;5027542;28;20248;-76
2023/04/23 10:56:32;;;;;;;5.90;5.10;;;;;;;17.50;47.47;63809.66;5012135;28;20203;-75
2023/04/23 10:58:59;;;;;;;6.75;5.00;;;;;;;17.52;46.67;63806.06;5016087;28;20215;-77
2023/04/23 11:01:29;;;;;;;5.78;5.35;;;;;;;17.48;45.21;63799.84;5016629;28;20244;-75
2023/04/23 11:03:57;;;;;;;5.72;5.32;;;;;;;17.63;45.05;63820.63;5016194;28;20391;-75
2023/04/23 11:06:53;;;;;;;5.57;5.18;;;;;;;17.55;45.65;63809.22;5008101;28;20245;-75
2023/04/23 11:09:43;;;;;;;5.07;4.63;;;;;;;17.53;43.89;63804.56;5019417;28;20198;-75
2023/04/23 11:12:12;;;;;;;5.55;5.15;;;;;;;17.49;43.28;63805.53;5009356;28;20218;-74
2023/04/23 11:14:46;;;;;;;7.57;5.15;;;;;;;17.16;43.63;63772.19;5007847;28;20207;-77
2023/04/23 11:17:14;;;;;;;5.38;4.90;;;;;;;17.52;43.16;63806.06;5022280;28;20229;-76
2023/04/23 11:20:09;;;;;;;8.68;5.07;;;;;;;17.68;43.67;63828.41;5018776;28;20522;-75
2023/04/23 11:22:37;;;;;;;5.05;4.65;;;;;;;17.84;43.38;63839.41;5025448;28;20287;-77
2023/04/23 11:25:08;;;;;;;5.43;5.00;;;;;;;17.71;44.55;63826.38;5027658;28;20194;-79
2023/04/23 11:27:39;;;;;;;6.32;5.57;;;;;;;17.67;43.69;63819.63;5016755;28;20237;-79
2023/04/23 11:30:12;;;;;;;6.05;4.95;;;;;;;17.99;44.54;63857.59;5026495;28;20200;-79
2023/04/23 11:32:40;;;;;;;4.82;4.25;;;;;;;18.33;43.30;63890.44;5018258;28;20223;-78
2023/04/23 11:35:12;;;;;;;5.57;4.70;;;;;;;18.06;42.83;63862.84;5026989;28;20403;-80